Time;durP1;ratioP1;P1;durP2;ratioP2;P2;SDS_P1;SDS_P2;PMS_P1;PMS_P2;Temp;Humidity;BMP_temperature;BMP_pressure;BME280_temperature;BME280_humidity;BME280_pressure;Samples;Min_cycle;Max_cycle;Signal;HPM_P1;HPM_P2
2023/04/16 00:01:39;;;;;;;5.30;2.65;;;11.00;79.80;;;;;;5002439;28;20073;-67
2023/04/16 00:04:04;;;;;;;7.30;2.00;;;11.00;79.90;;;;;;5006464;28;20487;-67
2023/04/16 00:06:30;;;;;;;6.68;3.17;;;11.00;79.80;;;;;;4996223;28;20424;-68
2023/04/16 00:08:56;;;;;;;8.85;2.75;;;11.00;80.10;;;;;;5007760;28;20352;-67
2023/04/16 00:11:22;;;;;;;8.15;2.35;;;11.00;80.30;;;;;;5008463;28;20026;-68
2023/04/16 00:13:47;;;;;;;3.88;2.20;;;11.00;80.40;;;;;;4988978;28;20085;-68
2023/04/16 00:16:13;;;;;;;4.88;2.35;;;11.00;80.50;;;;;;5005793;28;20025;-68
2023/04/16 00:18:39;;;;;;;3.45;2.10;;;11.00;80.50;;;;;;5004045;28;20019;-68
2023/04/16 00:21:06;;;;;;;2.75;1.35;;;11.00;80.70;;;;;;4990271;28;20029;-68
2023/04/16 00:23:31;;;;;;;7.38;2.90;;;11.00;80.60;;;;;;5007755;28;20034;-68
2023/04/16 00:25:58;;;;;;;6.22;2.88;;;11.00;80.70;;;;;;5004002;28;20038;-68
2023/04/16 00:28:24;;;;;;;4.57;2.65;;;11.00;80.80;;;;;;5002513;28;20030;-68
2023/04/16 00:30:50;;;;;;;5.03;2.47;;;11.00;80.80;;;;;;4983085;28;20457;-69
2023/04/16 00:33:16;;;;;;;5.05;2.30;;;11.10;80.90;;;;;;5006077;28;20053;-68
2023/04/16 00:35:45;;;;;;;3.78;2.08;;;11.10;80.80;;;;;;5010998;28;20740;-68
2023/04/16 00:38:10;;;;;;;6.60;3.13;;;11.10;80.80;;;;;;5008391;28;20080;-69
2023/04/16 00:40:36;;;;;;;4.10;2.15;;;11.10;80.90;;;;;;5009713;28;20034;-68
2023/04/16 00:43:02;;;;;;;4.68;1.90;;;11.10;80.90;;;;;;4992713;28;20109;-67
2023/04/16 00:45:28;;;;;;;4.18;2.55;;;11.10;81.30;;;;;;5011437;28;20157;-68
2023/04/16 00:47:55;;;;;;;4.47;2.55;;;11.10;80.80;;;;;;5011228;28;20014;-68
2023/04/16 00:50:21;;;;;;;5.40;2.65;;;11.10;81.10;;;;;;4996640;28;20030;-67
2023/04/16 00:52:48;;;;;;;7.70;2.33;;;11.00;81.00;;;;;;5006292;28;20056;-67
2023/04/16 00:55:16;;;;;;;6.38;2.08;;;11.10;81.10;;;;;;5008671;28;20096;-67
2023/04/16 00:57:42;;;;;;;7.45;2.22;;;11.10;80.90;;;;;;5005180;28;20453;-67
2023/04/16 01:00:08;;;;;;;7.97;2.20;;;11.20;80.90;;;;;;5011778;28;20112;-68
2023/04/16 01:02:35;;;;;;;4.85;2.80;;;11.20;80.80;;;;;;5007437;28;20119;-67
2023/04/16 01:05:04;;;;;;;6.60;2.97;;;11.10;81.10;;;;;;5011256;28;20030;-67
2023/04/16 01:07:30;;;;;;;9.50;3.05;;;11.10;81.20;;;;;;4992585;28;20115;-67
2023/04/16 01:09:56;;;;;;;4.63;2.67;;;11.10;81.50;;;;;;4978760;28;20022;-67
2023/04/16 01:12:22;;;;;;;12.82;3.75;;;11.10;81.60;;;;;;5003320;28;20072;-68
2023/04/16 01:14:48;;;;;;;5.60;2.42;;;11.10;81.50;;;;;;5011282;28;20022;-67
2023/04/16 01:17:13;;;;;;;3.67;2.22;;;11.10;82.20;;;;;;4994129;28;20476;-67
2023/04/16 01:19:39;;;;;;;3.97;2.35;;;11.10;81.50;;;;;;4984408;28;20026;-67
2023/04/16 01:22:05;;;;;;;3.85;2.50;;;11.10;82.10;;;;;;4982869;28;20037;-68
2023/04/16 01:24:31;;;;;;;4.50;1.88;;;11.10;81.40;;;;;;5008818;28;20504;-68
2023/04/16 01:26:58;;;;;;;4.22;2.38;;;11.20;81.50;;;;;;5005765;28;20061;-68
2023/04/16 01:29:24;;;;;;;28.10;3.03;;;11.20;81.40;;;;;;5007149;28;20022;-68
2023/04/16 01:31:50;;;;;;;6.07;2.45;;;11.20;81.40;;;;;;5010786;28;20508;-67
2023/04/16 01:34:15;;;;;;;3.45;2.05;;;11.20;81.50;;;;;;5006055;28;20022;-67
2023/04/16 01:36:41;;;;;;;7.03;3.00;;;11.20;81.50;;;;;;5004484;28;20089;-67
2023/04/16 01:39:10;;;;;;;7.45;2.83;;;11.20;81.40;;;;;;5009406;28;20113;-67
2023/04/16 01:41:36;;;;;;;8.23;3.35;;;11.20;81.60;;;;;;5010475;28;20022;-67
2023/04/16 01:44:02;;;;;;;3.65;2.67;;;11.20;81.70;;;;;;5008426;28;20018;-68
2023/04/16 01:46:29;;;;;;;4.38;1.58;;;11.20;81.70;;;;;;5010562;28;20038;-68
2023/04/16 01:48:56;;;;;;;6.07;2.03;;;11.20;81.70;;;;;;5008871;28;20029;-67
2023/04/16 01:51:22;;;;;;;3.58;2.50;;;11.20;81.60;;;;;;5004489;28;20072;-67
2023/04/16 01:53:49;;;;;;;6.65;3.45;;;11.20;81.40;;;;;;5005445;28;20927;-66
2023/04/16 01:56:15;;;;;;;6.50;2.55;;;11.30;81.50;;;;;;5010204;28;20058;-67
2023/04/16 01:58:41;;;;;;;5.68;2.67;;;11.30;81.30;;;;;;5008930;28;20054;-67
2023/04/16 02:01:08;;;;;;;4.72;2.60;;;11.30;81.40;;;;;;5008888;28;20485;-67
2023/04/16 02:03:34;;;;;;;6.13;3.22;;;11.30;81.30;;;;;;5007168;28;20511;-68
2023/04/16 02:06:00;;;;;;;5.00;3.25;;;11.30;81.40;;;;;;5006044;28;20034;-68
2023/04/16 02:08:26;;;;;;;5.97;3.58;;;11.30;81.60;;;;;;4990964;28;20069;-68
2023/04/16 02:10:52;;;;;;;6.97;2.72;;;11.30;81.70;;;;;;5008309;28;20429;-68
2023/04/16 02:13:18;;;;;;;8.00;3.33;;;11.20;81.50;;;;;;5007052;28;20492;-68
2023/04/16 02:15:48;;;;;;;8.30;3.58;;;11.30;81.50;;;;;;5008526;28;20025;-68
2023/04/16 02:18:14;;;;;;;5.05;2.58;;;11.30;81.40;;;;;;5006152;28;20041;-68
2023/04/16 02:20:41;;;;;;;7.80;2.53;;;11.30;81.90;;;;;;5005963;28;20042;-69
2023/04/16 02:23:07;;;;;;;6.68;2.60;;;11.30;81.20;;;;;;5006639;28;20446;-68
2023/04/16 02:25:39;;;;;;;6.97;2.95;;;11.30;81.20;;;;;;4974957;28;20088;-68
2023/04/16 02:28:06;;;;;;;7.47;3.65;;;11.30;81.30;;;;;;5003332;28;20069;-68
2023/04/16 02:30:33;;;;;;;9.02;4.47;;;11.30;81.40;;;;;;4990649;28;20033;-68
2023/04/16 02:33:00;;;;;;;6.07;2.95;;;11.30;81.50;;;;;;5006922;28;20034;-69
2023/04/16 02:35:26;;;;;;;7.82;3.30;;;11.20;81.60;;;;;;5001667;28;20038;-68
2023/04/16 02:37:52;;;;;;;3.97;2.75;;;11.20;81.50;;;;;;5006597;28;20022;-68
2023/04/16 02:40:18;;;;;;;6.95;3.38;;;11.30;81.50;;;;;;4993367;28;20026;-68
2023/04/16 02:42:43;;;;;;;9.18;3.50;;;11.30;81.50;;;;;;5009406;28;20497;-68
2023/04/16 02:45:10;;;;;;;10.55;4.88;;;11.30;81.50;;;;;;4988025;28;20516;-68
2023/04/16 02:47:36;;;;;;;5.70;3.33;;;11.30;81.70;;;;;;5010258;28;20038;-68
2023/04/16 02:50:02;;;;;;;12.43;4.53;;;11.20;81.70;;;;;;5008520;28;20425;-68
2023/04/16 02:52:27;;;;;;;8.82;3.92;;;11.20;81.90;;;;;;4989878;28;20045;-68
2023/04/16 02:54:53;;;;;;;8.80;4.00;;;11.20;81.80;;;;;;4989382;28;20489;-69
2023/04/16 02:57:18;;;;;;;6.13;3.63;;;11.20;82.00;;;;;;5005629;28;20092;-68
2023/04/16 02:59:44;;;;;;;6.25;3.15;;;11.20;82.00;;;;;;5008452;28;20159;-68
2023/04/16 03:02:10;;;;;;;6.07;3.08;;;11.20;81.90;;;;;;5008638;28;20077;-68
2023/04/16 03:04:36;;;;;;;7.53;3.65;;;11.30;81.90;;;;;;4991680;28;20034;-68
2023/04/16 03:07:01;;;;;;;6.97;3.15;;;11.20;81.80;;;;;;5008709;28;20040;-69
2023/04/16 03:09:27;;;;;;;6.45;4.45;;;11.30;81.90;;;;;;4989481;28;20037;-68
2023/04/16 03:11:53;;;;;;;7.47;4.57;;;11.20;81.90;;;;;;5008270;28;20065;-68
2023/04/16 03:14:18;;;;;;;6.45;4.40;;;11.20;82.00;;;;;;5007359;28;20046;-68
2023/04/16 03:16:44;;;;;;;6.93;3.72;;;11.20;82.00;;;;;;5009382;28;20041;-69
2023/04/16 03:19:09;;;;;;;7.45;3.00;;;11.20;82.00;;;;;;5006284;28;20032;-68
2023/04/16 03:21:35;;;;;;;4.47;3.53;;;11.20;81.80;;;;;;5004859;28;20493;-68
2023/04/16 03:24:01;;;;;;;9.45;3.40;;;11.30;81.70;;;;;;4994918;28;20403;-68
2023/04/16 03:26:26;;;;;;;6.05;3.35;;;11.30;81.70;;;;;;5006423;28;20029;-68
2023/04/16 03:28:52;;;;;;;14.93;4.20;;;11.20;81.70;;;;;;4995981;28;20026;-68
2023/04/16 03:31:18;;;;;;;7.95;3.92;;;11.30;81.70;;;;;;5006942;28;20096;-68
2023/04/16 03:33:43;;;;;;;8.77;3.92;;;11.30;81.70;;;;;;5005465;28;20065;-68
2023/04/16 03:36:09;;;;;;;7.53;3.67;;;11.30;81.90;;;;;;5005154;28;20046;-68
2023/04/16 03:38:35;;;;;;;5.47;3.17;;;11.30;81.90;;;;;;5005453;28;20033;-68
2023/04/16 03:41:00;;;;;;;9.40;4.22;;;11.30;81.90;;;;;;5007412;28;20109;-68
2023/04/16 03:43:26;;;;;;;7.28;4.50;;;11.20;81.70;;;;;;5007422;28;20073;-68
2023/04/16 03:45:52;;;;;;;7.90;4.10;;;11.20;81.90;;;;;;4996493;28;20054;-68
2023/04/16 03:48:17;;;;;;;11.77;4.20;;;11.30;81.90;;;;;;5000612;28;20025;-67
2023/04/16 03:50:46;;;;;;;7.13;3.75;;;11.20;82.00;;;;;;5006301;28;20485;-66
2023/04/16 03:53:12;;;;;;;9.57;4.60;;;11.30;82.00;;;;;;5006617;28;20548;-68
2023/04/16 03:55:38;;;;;;;8.45;4.80;;;11.30;81.90;;;;;;5007981;28;20054;-68
2023/04/16 03:58:04;;;;;;;9.00;5.18;;;11.30;82.00;;;;;;5007102;28;20030;-68
2023/04/16 04:00:30;;;;;;;8.60;4.13;;;11.30;82.10;;;;;;5006736;28;20185;-66
2023/04/16 04:02:56;;;;;;;7.40;3.83;;;11.20;82.30;;;;;;5009029;28;20613;-67
2023/04/16 04:05:21;;;;;;;8.43;4.15;;;11.20;82.40;;;;;;4992760;28;20069;-70
2023/04/16 04:07:47;;;;;;;7.03;3.03;;;11.20;82.30;;;;;;5009657;28;20389;-69
2023/04/16 04:10:13;;;;;;;9.15;4.80;;;11.20;82.30;;;;;;5009454;28;20058;-65
2023/04/16 04:12:39;;;;;;;6.97;3.78;;;11.20;82.30;;;;;;5010177;28;20045;-65
2023/04/16 04:15:05;;;;;;;12.07;4.07;;;11.20;82.30;;;;;;5010552;28;20109;-67
2023/04/16 04:17:31;;;;;;;6.57;3.58;;;11.20;82.40;;;;;;4994263;28;20038;-69
2023/04/16 04:19:56;;;;;;;9.50;4.35;;;11.20;82.30;;;;;;5012034;28;20049;-66
2023/04/16 04:22:22;;;;;;;8.90;4.38;;;11.20;82.30;;;;;;5004274;28;20038;-66
2023/04/16 04:24:49;;;;;;;8.73;4.40;;;11.30;82.30;;;;;;4973842;28;20076;-68
2023/04/16 04:27:15;;;;;;;13.10;3.85;;;11.30;82.30;;;;;;4959130;28;20572;-68
2023/04/16 04:29:41;;;;;;;7.82;3.95;;;11.30;82.10;;;;;;5007736;28;20109;-67
2023/04/16 04:32:06;;;;;;;8.50;4.47;;;11.30;82.20;;;;;;4996123;28;20026;-67
2023/04/16 04:34:32;;;;;;;9.65;4.80;;;11.20;82.50;;;;;;5010330;28;20041;-67
2023/04/16 04:36:58;;;;;;;10.40;4.35;;;11.20;82.50;;;;;;5009461;28;20496;-67
2023/04/16 04:39:24;;;;;;;9.50;5.25;;;11.20;82.80;;;;;;5010931;28;20504;-67
2023/04/16 04:41:49;;;;;;;13.82;5.07;;;11.10;83.00;;;;;;5010091;28;20033;-67
2023/04/16 04:44:15;;;;;;;6.28;4.18;;;11.10;83.30;;;;;;5011139;28;20026;-67
2023/04/16 04:46:41;;;;;;;9.10;5.00;;;11.10;83.20;;;;;;5010434;28;20034;-67
2023/04/16 04:49:06;;;;;;;7.82;4.63;;;11.10;83.10;;;;;;4994292;28;20033;-68
2023/04/16 04:51:32;;;;;;;14.25;5.10;;;11.10;83.00;;;;;;4989401;28;20030;-68
2023/04/16 04:53:59;;;;;;;11.82;5.15;;;11.10;83.00;;;;;;5010035;28;20484;-67
2023/04/16 04:56:25;;;;;;;9.65;5.43;;;11.10;83.00;;;;;;4994417;28;20034;-68
2023/04/16 04:58:50;;;;;;;11.40;4.45;;;11.10;83.10;;;;;;5005731;28;20026;-68
2023/04/16 05:01:16;;;;;;;15.63;4.20;;;11.20;83.00;;;;;;5010698;28;20034;-68
2023/04/16 05:03:43;;;;;;;8.30;4.75;;;11.20;83.10;;;;;;5005828;28;20121;-67
2023/04/16 05:06:08;;;;;;;10.25;4.45;;;11.10;83.20;;;;;;5002972;28;20014;-70
2023/04/16 05:08:34;;;;;;;14.60;5.50;;;11.20;83.30;;;;;;5010335;28;20038;-69
2023/04/16 05:11:00;;;;;;;5.43;3.33;;;11.10;83.20;;;;;;5011424;28;20026;-69
2023/04/16 05:13:26;;;;;;;9.88;5.18;;;11.10;83.20;;;;;;5008734;28;20038;-68
2023/04/16 05:15:51;;;;;;;7.75;4.20;;;11.10;83.20;;;;;;4993182;28;20033;-69
2023/04/16 05:18:17;;;;;;;15.32;5.15;;;11.20;83.30;;;;;;4992428;28;20034;-68
2023/04/16 05:20:42;;;;;;;9.63;3.65;;;11.20;83.30;;;;;;5011018;28;20034;-68
2023/04/16 05:23:08;;;;;;;7.25;5.10;;;11.20;83.30;;;;;;5009371;28;20072;-68
2023/04/16 05:25:34;;;;;;;10.00;5.45;;;11.20;83.20;;;;;;5011216;28;20069;-68
2023/04/16 05:28:00;;;;;;;7.72;4.32;;;11.20;83.20;;;;;;5007832;28;20043;-69
2023/04/16 05:30:25;;;;;;;7.55;3.83;;;11.20;83.60;;;;;;5010520;28;20056;-68
2023/04/16 05:32:51;;;;;;;8.65;4.57;;;11.30;83.00;;;;;;4989090;28;20439;-68
2023/04/16 05:35:16;;;;;;;9.98;4.38;;;11.30;83.00;;;;;;4993296;28;20026;-68
2023/04/16 05:37:42;;;;;;;8.10;4.82;;;11.30;82.90;;;;;;4991174;28;20030;-69
2023/04/16 05:40:08;;;;;;;13.15;5.47;;;11.30;83.00;;;;;;4993617;28;20033;-70
2023/04/16 05:42:34;;;;;;;8.70;5.18;;;11.30;83.00;;;;;;5010182;28;20064;-68
2023/04/16 05:45:01;;;;;;;14.02;4.90;;;11.30;83.00;;;;;;5010427;28;20030;-69
2023/04/16 05:47:27;;;;;;;11.75;5.07;;;11.30;83.20;;;;;;5010408;28;20777;-69
2023/04/16 05:49:53;;;;;;;12.85;4.93;;;11.30;83.20;;;;;;5006285;28;20050;-69
2023/04/16 05:52:18;;;;;;;9.93;4.68;;;11.30;83.10;;;;;;5008331;28;20037;-69
2023/04/16 05:54:44;;;;;;;10.27;4.57;;;11.30;83.00;;;;;;5010484;28;20042;-69
2023/04/16 05:57:10;;;;;;;10.65;4.50;;;11.40;83.00;;;;;;5009999;28;20594;-69
2023/04/16 05:59:36;;;;;;;7.43;4.68;;;11.40;83.00;;;;;;5010900;28;20025;-69
2023/04/16 06:02:01;;;;;;;6.75;4.28;;;11.40;82.90;;;;;;5010990;28;20033;-69
2023/04/16 06:04:28;;;;;;;11.38;5.03;;;11.50;82.90;;;;;;4997210;28;20113;-69
2023/04/16 06:06:54;;;;;;;6.78;4.20;;;11.50;82.80;;;;;;5009283;28;20112;-69
2023/04/16 06:09:20;;;;;;;7.25;4.32;;;11.50;82.60;;;;;;4971580;28;20069;-70
2023/04/16 06:11:45;;;;;;;10.98;5.03;;;11.60;82.60;;;;;;5004199;28;20493;-69
2023/04/16 06:14:11;;;;;;;10.48;3.97;;;11.60;82.50;;;;;;5009244;28;20093;-70
2023/04/16 06:16:37;;;;;;;10.20;4.38;;;11.60;82.50;;;;;;5008167;28;20513;-68
2023/04/16 06:19:02;;;;;;;11.77;4.18;;;11.60;82.40;;;;;;5006396;28;20053;-68
2023/04/16 06:21:28;;;;;;;5.53;2.70;;;11.70;82.40;;;;;;5006239;28;20034;-68
2023/04/16 06:23:55;;;;;;;5.70;3.20;;;11.70;82.80;;;;;;5007584;28;20045;-68
2023/04/16 06:26:20;;;;;;;5.93;2.58;;;11.80;82.10;;;;;;4977296;28;20121;-68
2023/04/16 06:28:46;;;;;;;5.18;3.45;;;11.80;81.90;;;;;;5005864;28;20156;-67
2023/04/16 06:31:12;;;;;;;6.40;3.78;;;11.90;81.70;;;;;;5005920;28;20031;-68
2023/04/16 06:33:37;;;;;;;6.18;4.53;;;11.90;81.60;;;;;;5009857;28;20030;-68
2023/04/16 06:36:03;;;;;;;7.22;4.65;;;11.90;81.60;;;;;;5008220;28;20065;-69
2023/04/16 06:38:29;;;;;;;5.70;3.15;;;11.90;81.50;;;;;;5005914;28;20085;-69
2023/04/16 06:40:55;;;;;;;10.10;5.05;;;11.90;81.50;;;;;;5009455;28;20467;-69
2023/04/16 06:43:21;;;;;;;3.78;2.75;;;11.90;81.50;;;;;;4991868;28;20022;-68
2023/04/16 06:45:46;;;;;;;7.15;3.58;;;12.00;81.40;;;;;;4987483;28;20034;-67
2023/04/16 06:48:12;;;;;;;6.40;3.33;;;12.00;81.20;;;;;;5007274;28;20025;-67
2023/04/16 06:50:38;;;;;;;10.57;3.75;;;12.00;81.20;;;;;;5002539;28;20027;-69
2023/04/16 06:53:03;;;;;;;6.90;3.55;;;12.00;81.20;;;;;;4984969;28;20053;-67
2023/04/16 06:55:29;;;;;;;6.05;3.22;;;12.00;81.20;;;;;;5000447;28;20066;-67
2023/04/16 06:57:55;;;;;;;6.93;3.35;;;12.10;81.10;;;;;;4996048;28;20117;-67
2023/04/16 07:00:20;;;;;;;8.05;3.97;;;12.00;81.10;;;;;;4997460;28;20049;-67
2023/04/16 07:02:46;;;;;;;6.38;3.25;;;12.00;81.10;;;;;;5002985;28;20037;-69
2023/04/16 07:05:12;;;;;;;6.38;3.85;;;12.00;81.10;;;;;;5002518;28;20453;-68
2023/04/16 07:07:37;;;;;;;10.73;3.88;;;12.10;81.10;;;;;;5000792;28;20385;-68
2023/04/16 07:10:04;;;;;;;4.90;3.40;;;12.00;81.60;;;;;;4997939;28;20489;-68
2023/04/16 07:12:31;;;;;;;8.50;3.65;;;12.10;81.10;;;;;;4999000;28;20277;-68
2023/04/16 07:14:57;;;;;;;6.22;3.17;;;12.00;81.00;;;;;;5006687;28;20057;-68
2023/04/16 07:17:22;;;;;;;7.15;3.95;;;12.10;81.00;;;;;;5007368;28;20066;-69
2023/04/16 07:19:48;;;;;;;7.22;2.58;;;12.10;80.90;;;;;;5009156;28;20033;-69
2023/04/16 07:22:14;;;;;;;8.07;3.55;;;12.20;80.80;;;;;;4969688;28;20081;-69
2023/04/16 07:24:40;;;;;;;7.43;3.92;;;12.20;80.70;;;;;;5007335;28;20037;-69
2023/04/16 07:27:05;;;;;;;7.40;4.30;;;12.30;80.60;;;;;;5006912;28;20034;-69
2023/04/16 07:29:31;;;;;;;5.63;3.15;;;12.30;80.50;;;;;;5005803;28;20424;-69
2023/04/16 07:31:57;;;;;;;7.47;3.38;;;12.30;80.50;;;;;;5007135;28;20041;-68
2023/04/16 07:34:22;;;;;;;8.15;3.92;;;12.30;80.50;;;;;;4968738;28;20034;-66
2023/04/16 07:36:48;;;;;;;6.82;3.92;;;12.40;80.40;;;;;;5006537;28;20025;-67
2023/04/16 07:39:14;;;;;;;7.80;4.15;;;12.40;80.30;;;;;;4986677;28;21412;-67
2023/04/16 07:41:40;;;;;;;6.80;3.13;;;12.50;80.20;;;;;;5001748;28;20196;-68
2023/04/16 07:44:05;;;;;;;6.15;3.75;;;12.50;80.10;;;;;;5005782;28;20511;-67
2023/04/16 07:46:31;;;;;;;11.68;5.32;;;12.50;80.00;;;;;;5000968;28;20438;-69
2023/04/16 07:48:57;;;;;;;6.97;4.13;;;12.60;80.00;;;;;;4990326;28;20049;-67
2023/04/16 07:51:22;;;;;;;9.90;5.13;;;12.50;79.80;;;;;;5005663;28;20172;-69
2023/04/16 07:53:48;;;;;;;9.07;3.97;;;12.50;79.70;;;;;;5003769;28;20528;-68
2023/04/16 07:56:14;;;;;;;5.13;3.70;;;12.50;79.80;;;;;;5009140;28;20111;-69
2023/04/16 07:58:39;;;;;;;8.45;4.47;;;12.50;79.80;;;;;;5009098;28;20033;-69
2023/04/16 08:01:05;;;;;;;10.30;4.68;;;12.50;79.70;;;;;;5005682;28;20026;-69
2023/04/16 08:03:31;;;;;;;7.35;3.90;;;12.60;79.70;;;;;;4987289;28;20048;-68
2023/04/16 08:05:57;;;;;;;4.82;3.47;;;12.60;79.60;;;;;;5008847;28;20425;-68
2023/04/16 08:08:23;;;;;;;7.05;4.10;;;12.70;79.60;;;;;;5008607;28;20026;-68
2023/04/16 08:10:48;;;;;;;10.60;4.72;;;12.70;79.40;;;;;;5006725;28;20045;-68
2023/04/16 08:13:14;;;;;;;8.23;4.32;;;12.80;79.20;;;;;;5006535;28;20168;-68
2023/04/16 08:15:40;;;;;;;9.18;4.57;;;12.80;79.00;;;;;;5003400;28;20026;-68
2023/04/16 08:18:11;;;;;;;6.03;3.13;;;12.80;79.00;;;;;;4984553;28;20030;-69
2023/04/16 08:20:37;;;;;;;15.40;4.68;;;12.80;79.00;;;;;;5005419;28;20085;-68
2023/04/16 08:23:03;;;;;;;8.98;4.35;;;12.80;78.80;;;;;;5006144;28;20096;-68
2023/04/16 08:25:29;;;;;;;8.23;4.85;;;12.80;78.80;;;;;;4999439;28;20057;-68
2023/04/16 08:27:54;;;;;;;9.25;4.97;;;12.80;78.70;;;;;;5003428;28;20040;-68
2023/04/16 08:30:20;;;;;;;7.47;4.32;;;12.70;78.80;;;;;;5000494;28;20732;-68
2023/04/16 08:32:46;;;;;;;10.63;5.63;;;12.70;78.90;;;;;;4999089;28;20049;-68
2023/04/16 08:35:12;;;;;;;9.30;4.50;;;12.70;78.80;;;;;;4986100;28;20072;-68
2023/04/16 08:37:37;;;;;;;8.48;4.75;;;12.70;78.80;;;;;;5001503;28;20062;-69
2023/04/16 08:40:03;;;;;;;10.00;4.00;;;12.80;78.90;;;;;;4984092;28;20169;-69
2023/04/16 08:42:39;;;;;;;6.05;4.28;;;12.80;78.80;;;;;;4971901;28;20653;-70
2023/04/16 08:45:16;;;;;;;6.90;4.10;;;12.90;78.70;;;;;;5005550;28;20022;-69
2023/04/16 08:47:48;;;;;;;4.88;3.40;;;13.00;78.60;;;;;;5000445;28;20361;-70
2023/04/16 08:50:16;;;;;;;6.85;3.65;;;13.10;78.50;;;;;;5006734;28;20972;-69
2023/04/16 08:52:57;;;;;;;6.93;4.30;;;13.10;78.30;;;;;;5004340;28;20133;-69
2023/04/16 08:55:31;;;;;;;10.98;4.78;;;13.20;78.00;;;;;;5003327;28;20026;-69
2023/04/16 08:58:02;;;;;;;6.90;4.03;;;13.30;77.90;;;;;;5005597;28;20030;-70
2023/04/16 09:00:30;;;;;;;7.78;3.67;;;13.30;77.90;;;;;;5008607;28;20083;-69
2023/04/16 09:02:56;;;;;;;7.70;3.67;;;13.30;77.80;;;;;;5008766;28;20122;-69
2023/04/16 09:05:24;;;;;;;9.68;5.50;;;13.40;77.70;;;;;;5005636;28;20500;-69
2023/04/16 09:07:52;;;;;;;10.20;4.70;;;13.50;77.50;;;;;;5006037;28;20030;-69
2023/04/16 09:10:18;;;;;;;15.27;5.78;;;13.50;77.40;;;;;;4993983;28;20728;-69
2023/04/16 09:12:44;;;;;;;14.30;4.53;;;13.50;77.30;;;;;;5004145;28;20014;-69
2023/04/16 09:15:11;;;;;;;11.95;6.10;;;13.60;77.30;;;;;;5006906;28;20480;-70
2023/04/16 09:17:38;;;;;;;7.55;4.90;;;13.70;77.20;;;;;;5004389;28;20030;-70
2023/04/16 09:20:08;;;;;;;9.50;4.32;;;13.80;77.00;;;;;;5010860;28;20138;-69
2023/04/16 09:22:37;;;;;;;11.63;4.00;;;13.80;76.80;;;;;;5004097;28;20180;-68
2023/04/16 09:25:03;;;;;;;6.90;3.75;;;14.00;76.80;;;;;;5000771;28;20589;-69
2023/04/16 09:27:30;;;;;;;11.80;5.68;;;14.00;76.40;;;;;;5009170;28;20034;-70
2023/04/16 09:29:55;;;;;;;9.98;4.90;;;14.10;75.80;;;;;;5011299;28;20026;-68
2023/04/16 09:32:28;;;;;;;11.23;4.93;;;14.10;76.40;;;;;;4993239;28;20401;-69
2023/04/16 09:35:00;;;;;;;6.80;3.80;;;14.00;75.60;;;;;;5006817;28;20030;-69
2023/04/16 09:37:30;;;;;;;10.63;5.05;;;14.00;75.90;;;;;;5009186;28;20057;-71
2023/04/16 09:39:56;;;;;;;6.25;4.35;;;14.10;75.80;;;;;;4994268;28;20022;-72
2023/04/16 09:42:28;;;;;;;10.25;4.43;;;14.10;75.60;;;;;;5010957;28;20022;-73
2023/04/16 09:44:54;;;;;;;6.93;4.40;;;14.30;75.50;;;;;;5007562;28;20014;-70
2023/04/16 09:47:21;;;;;;;14.25;5.07;;;14.50;75.10;;;;;;5010758;28;20216;-70
2023/04/16 09:49:47;;;;;;;9.30;5.22;;;14.60;74.60;;;;;;5007645;28;20101;-69
2023/04/16 09:52:21;;;;;;;13.20;4.30;;;14.70;74.10;;;;;;4992116;28;20041;-70
2023/04/16 09:54:52;;;;;;;9.65;4.05;;;14.80;73.90;;;;;;5003931;28;20477;-69
2023/04/16 09:57:22;;;;;;;9.48;4.10;;;15.00;73.70;;;;;;5005748;28;20090;-70
2023/04/16 10:00:09;;;;;;;9.65;4.60;;;15.10;73.50;;;;;;4999028;28;20026;-70
2023/04/16 10:02:39;;;;;;;8.68;4.15;;;15.20;72.70;;;;;;4997058;28;20085;-70
2023/04/16 10:05:05;;;;;;;8.52;3.70;;;15.20;72.80;;;;;;5007413;28;20104;-70
2023/04/16 10:07:34;;;;;;;7.78;4.53;;;15.30;72.80;;;;;;4987374;28;20116;-70
2023/04/16 10:10:00;;;;;;;8.80;5.53;;;15.40;72.50;;;;;;4991077;28;20142;-70
2023/04/16 10:12:27;;;;;;;6.22;3.47;;;15.50;71.90;;;;;;5005259;28;20133;-69
2023/04/16 10:14:53;;;;;;;7.70;5.00;;;15.60;71.50;;;;;;5003820;28;20072;-70
2023/04/16 10:17:20;;;;;;;6.28;3.95;;;15.70;71.30;;;;;;5010283;28;20109;-70
2023/04/16 10:19:46;;;;;;;7.63;4.32;;;15.80;71.00;;;;;;5010400;28;20029;-70
2023/04/16 10:22:12;;;;;;;6.00;3.20;;;15.90;71.00;;;;;;4968092;28;20046;-70
2023/04/16 10:24:40;;;;;;;6.55;3.67;;;16.10;70.60;;;;;;5001880;28;20057;-70
2023/04/16 10:27:05;;;;;;;13.57;4.35;;;16.40;70.20;;;;;;5005892;28;20400;-69
2023/04/16 10:29:32;;;;;;;8.48;4.50;;;16.70;68.20;;;;;;5005197;28;20026;-70
2023/04/16 10:31:59;;;;;;;10.27;5.68;;;16.80;68.00;;;;;;5009866;28;20152;-69
2023/04/16 10:34:27;;;;;;;7.05;4.28;;;16.70;67.60;;;;;;5008899;28;20148;-69
2023/04/16 10:36:54;;;;;;;8.40;4.43;;;16.70;67.90;;;;;;5006408;28;20504;-67
2023/04/16 10:39:24;;;;;;;5.03;3.53;;;16.60;68.20;;;;;;5007891;28;20531;-69
2023/04/16 10:42:05;;;;;;;7.63;3.90;;;16.50;68.30;;;;;;4991717;28;20030;-68
2023/04/16 10:44:31;;;;;;;9.48;3.47;;;16.50;68.40;;;;;;5009477;28;20085;-69
2023/04/16 10:46:58;;;;;;;5.80;3.38;;;16.40;68.60;;;;;;4976892;28;20523;-68
2023/04/16 10:49:25;;;;;;;7.05;4.35;;;16.40;68.70;;;;;;5007646;28;20026;-68
2023/04/16 10:52:08;;;;;;;6.60;4.47;;;16.40;68.60;;;;;;5009583;28;20084;-67
2023/04/16 10:54:37;;;;;;;7.72;4.35;;;16.40;68.30;;;;;;5009220;28;20515;-68
2023/04/16 10:57:06;;;;;;;10.40;4.55;;;16.40;68.30;;;;;;5009874;28;20029;-67
2023/04/16 10:59:36;;;;;;;7.72;4.13;;;16.50;68.10;;;;;;4990021;28;20026;-67
2023/04/16 11:02:10;;;;;;;11.10;5.18;;;16.50;67.70;;;;;;4991300;28;20033;-68
2023/04/16 11:04:38;;;;;;;6.43;3.30;;;16.50;66.90;;;;;;5009789;28;20085;-68
2023/04/16 11:07:20;;;;;;;9.90;3.58;;;16.50;67.20;;;;;;5006186;28;20025;-68
2023/04/16 11:10:01;;;;;;;7.82;3.70;;;16.50;67.30;;;;;;5005421;28;20041;-68
2023/04/16 11:12:36;;;;;;;8.90;4.43;;;16.70;67.40;;;;;;5006830;28;20029;-68
2023/04/16 11:15:05;;;;;;;8.82;4.22;;;17.00;66.70;;;;;;5005436;28;20034;-68
2023/04/16 11:17:46;;;;;;;10.85;3.78;;;17.20;66.00;;;;;;5006737;28;20076;-69
2023/04/16 11:20:17;;;;;;;8.48;4.65;;;17.20;65.40;;;;;;5006689;28;20025;-68
2023/04/16 11:22:44;;;;;;;7.55;4.40;;;17.00;65.00;;;;;;5005729;28;20042;-68
2023/04/16 11:25:10;;;;;;;8.15;4.47;;;16.80;65.60;;;;;;5006676;28;20152;-69
2023/04/16 11:27:36;;;;;;;9.30;4.65;;;16.80;65.80;;;;;;5006476;28;20037;-68
2023/04/16 11:30:05;;;;;;;7.38;4.00;;;16.70;65.90;;;;;;4990357;28;20025;-68
2023/04/16 11:32:35;;;;;;;8.48;3.40;;;16.70;66.10;;;;;;5006297;28;20038;-69
2023/04/16 11:35:03;;;;;;;9.35;5.18;;;16.70;66.20;;;;;;4992408;28;20079;-69
2023/04/16 11:37:33;;;;;;;5.82;3.63;;;16.70;65.90;;;;;;5005650;28;20451;-69
2023/04/16 11:40:00;;;;;;;6.70;4.15;;;16.70;66.10;;;;;;4990646;28;20022;-69
2023/04/16 11:42:27;;;;;;;8.43;4.28;;;16.60;66.10;;;;;;5000592;28;20625;-69
2023/04/16 11:44:57;;;;;;;7.13;3.85;;;16.60;66.30;;;;;;5006467;28;20441;-69
2023/04/16 11:47:23;;;;;;;7.45;4.05;;;16.50;66.20;;;;;;5004313;28;20073;-68
2023/04/16 11:49:50;;;;;;;12.57;4.10;;;16.40;66.50;;;;;;5006702;28;20034;-68
2023/04/16 11:52:30;;;;;;;6.85;3.97;;;16.30;66.60;;;;;;5002027;28;20022;-68
2023/04/16 11:54:56;;;;;;;9.98;3.78;;;16.20;66.80;;;;;;5006138;28;20075;-68
2023/04/16 11:57:27;;;;;;;8.55;4.38;;;16.20;67.00;;;;;;5003638;28;20040;-69
2023/04/16 11:59:53;;;;;;;9.73;4.18;;;16.20;67.00;;;;;;5001254;28;20442;-69
2023/04/16 12:02:36;;;;;;;9.55;4.07;;;16.10;67.10;;;;;;5004293;28;20054;-68
2023/04/16 12:05:30;;;;;;;7.63;3.55;;;16.10;67.10;;;;;;4986920;28;20041;-70
2023/04/16 12:08:00;;;;;;;6.53;3.40;;;16.10;67.40;;;;;;5007583;28;20478;-69
2023/04/16 12:10:26;;;;;;;5.55;3.22;;;16.30;67.40;;;;;;4999340;28;20025;-68
2023/04/16 12:12:52;;;;;;;6.80;4.30;;;16.40;66.70;;;;;;5006097;28;20065;-68
2023/04/16 12:15:18;;;;;;;5.85;3.08;;;16.50;66.60;;;;;;5006453;28;20717;-69
2023/04/16 12:17:44;;;;;;;9.20;3.70;;;16.60;66.70;;;;;;4990811;28;20094;-69
2023/04/16 12:20:11;;;;;;;7.35;3.65;;;16.60;66.20;;;;;;5007083;28;20076;-68
2023/04/16 12:22:42;;;;;;;6.05;3.25;;;16.60;66.40;;;;;;5000607;28;20030;-67
2023/04/16 12:25:12;;;;;;;15.93;5.07;;;16.60;66.30;;;;;;5004181;28;20500;-68
2023/04/16 12:27:51;;;;;;;7.50;4.25;;;16.70;66.10;;;;;;5010232;28;20056;-69
2023/04/16 12:30:18;;;;;;;8.27;3.75;;;16.80;66.10;;;;;;5008288;28;20027;-68
2023/04/16 12:32:47;;;;;;;6.50;3.30;;;17.00;66.00;;;;;;4975138;28;20117;-70
2023/04/16 12:35:13;;;;;;;7.50;3.33;;;17.10;65.70;;;;;;5001497;28;20469;-71
2023/04/16 12:37:40;;;;;;;8.15;4.25;;;17.20;64.90;;;;;;5008429;28;20018;-70
2023/04/16 12:40:06;;;;;;;9.40;4.03;;;17.20;64.90;;;;;;5000486;28;20026;-69
2023/04/16 12:42:35;;;;;;;10.13;4.93;;;17.30;64.60;;;;;;5003150;28;20062;-70
2023/04/16 12:45:05;;;;;;;8.48;4.43;;;17.30;64.00;;;;;;5012074;28;20018;-69